createdAt,value
2019-03-29T00:01:48.292Z,4.45
2019-03-29T00:05:54.271Z,4.30
2019-03-29T00:10:00.257Z,4.23
2019-03-29T00:14:08.850Z,4.25
2019-03-29T00:18:15.273Z,4.22
2019-03-29T00:22:21.251Z,4.14
2019-03-29T00:26:27.466Z,3.96
2019-03-29T00:30:33.265Z,4.11
2019-03-29T00:39:08.806Z,4.66
2019-03-29T00:43:14.759Z,4.80
2019-03-29T00:47:21.103Z,4.71
2019-03-29T00:51:27.216Z,4.60
2019-03-29T00:55:33.296Z,4.73
2019-03-29T00:59:40.186Z,4.61
2019-03-29T01:03:57.345Z,4.24
2019-03-29T01:12:34.951Z,4.32
2019-03-29T01:16:40.769Z,3.91
2019-03-29T01:21:06.971Z,3.79
2019-03-29T01:25:13.359Z,3.75
2019-03-29T01:29:19.481Z,4.06
2019-03-29T01:33:25.452Z,4.28
2019-03-29T01:37:31.523Z,4.31
2019-03-29T01:41:39.376Z,4.31
2019-03-29T01:45:59.717Z,4.35
2019-03-29T01:50:26.372Z,4.46
2019-03-29T01:54:32.971Z,4.32
2019-03-29T01:58:39.292Z,4.09
2019-03-29T02:12:40.826Z,4.21
2019-03-29T02:16:44.852Z,4.27
2019-03-29T02:25:54.276Z,4.22
2019-03-29T02:30:00.511Z,4.06
2019-03-29T02:39:08.030Z,3.91
2019-03-29T02:48:27.726Z,4.01
2019-03-29T02:52:27.828Z,3.91
2019-03-29T02:56:34.567Z,3.99
2019-03-29T03:01:04.952Z,4.01
2019-03-29T03:04:55.748Z,4.13
2019-03-29T03:09:14.128Z,4.04
2019-03-29T03:13:20.436Z,3.99
2019-03-29T03:17:31.750Z,4.02
2019-03-29T03:21:37.935Z,3.88
2019-03-29T03:25:46.906Z,3.80
2019-03-29T03:29:53.255Z,3.72
2019-03-29T03:34:02.419Z,3.98
2019-03-29T03:38:08.732Z,3.87
2019-03-29T03:42:17.498Z,3.65
2019-03-29T03:46:23.841Z,3.49
2019-03-29T03:50:48.945Z,3.54
2019-03-29T03:54:55.785Z,3.35
2019-03-29T04:03:57.727Z,3.53
2019-03-29T04:08:09.484Z,3.65
2019-03-29T04:17:08.649Z,3.38
2019-03-29T04:26:33.903Z,3.19
2019-03-29T04:30:43.779Z,3.12
2019-03-29T04:35:00.906Z,2.75
2019-03-29T04:39:28.186Z,2.62
2019-03-29T04:44:08.010Z,2.39
2019-03-29T05:03:03.158Z,2.35
2019-03-29T05:07:10.492Z,2.31
2019-03-29T05:11:16.759Z,2.48
2019-03-29T05:15:22.528Z,2.26
2019-03-29T05:19:28.275Z,2.31
2019-03-29T05:23:34.659Z,2.53
2019-03-29T05:27:41.595Z,2.75
2019-03-29T05:31:47.442Z,2.79
2019-03-29T05:35:55.188Z,2.90
2019-03-29T05:40:04.119Z,2.96
2019-03-29T05:44:24.029Z,2.76
2019-03-29T05:48:36.531Z,2.82
2019-03-29T05:52:42.694Z,3.07
2019-03-29T05:56:48.391Z,3.37
2019-03-29T06:00:54.151Z,3.50
2019-03-29T06:05:01.832Z,3.74
2019-03-29T06:09:08.182Z,3.73
2019-03-29T06:13:14.002Z,3.92
2019-03-29T06:17:19.734Z,4.02
2019-03-29T06:21:25.795Z,4.30
2019-03-29T06:25:31.577Z,4.14
2019-03-29T06:29:37.290Z,4.30
2019-03-29T06:38:44.323Z,4.76
2019-03-29T06:42:50.132Z,4.94
2019-03-29T06:46:55.937Z,5.27
2019-03-29T06:51:01.797Z,5.59
2019-03-29T06:55:07.513Z,5.81
2019-03-29T07:03:30.530Z,6.11
2019-03-29T07:07:36.188Z,6.58
2019-03-29T07:11:41.953Z,7.35
2019-03-29T07:15:47.761Z,7.91
2019-03-29T07:19:55.157Z,7.46
2019-03-29T07:24:00.891Z,7.37
2019-03-29T07:28:06.644Z,7.56
2019-03-29T07:32:12.478Z,7.74
2019-03-29T07:36:18.208Z,7.89
2019-03-29T07:40:26.218Z,8.00
2019-03-29T07:44:36.217Z,8.35
2019-03-29T07:48:41.977Z,8.91
2019-03-29T07:52:48.400Z,8.94
2019-03-29T07:56:54.158Z,8.99
2019-03-29T08:01:00.002Z,9.30
2019-03-29T08:05:06.267Z,9.45
2019-03-29T08:09:22.263Z,9.72
2019-03-29T08:13:25.282Z,9.76
2019-03-29T08:17:36.498Z,10.18
2019-03-29T08:21:42.255Z,10.46
2019-03-29T08:25:48.062Z,10.49
2019-03-29T08:29:53.889Z,10.56
2019-03-29T08:34:00.057Z,10.72
2019-03-29T08:38:06.422Z,11.26
2019-03-29T08:42:12.188Z,11.42
2019-03-29T08:46:18.002Z,11.54
2019-03-29T08:50:23.847Z,12.31
2019-03-29T08:54:30.238Z,12.10
2019-03-29T08:58:36.127Z,12.88
2019-03-29T09:02:42.125Z,12.88
2019-03-29T09:07:09.070Z,12.88
2019-03-29T09:11:15.735Z,12.64
2019-03-29T09:15:43.601Z,13.15
2019-03-29T09:19:49.287Z,12.96
2019-03-29T09:23:57.179Z,13.51
2019-03-29T09:28:03.285Z,13.83
2019-03-29T09:32:09.086Z,14.03
2019-03-29T09:36:15.205Z,13.37
2019-03-29T09:40:21.090Z,13.31
2019-03-29T09:44:26.999Z,13.78
2019-03-29T09:48:34.578Z,13.58
2019-03-29T09:53:01.208Z,13.99
2019-03-29T09:57:15.603Z,14.35
2019-03-29T10:01:25.396Z,14.58
2019-03-29T10:05:50.023Z,14.18
2019-03-29T10:09:55.765Z,14.88
2019-03-29T10:14:01.492Z,14.89
2019-03-29T10:18:07.190Z,14.96
2019-03-29T10:27:02.435Z,15.33
2019-03-29T10:31:08.323Z,15.57
2019-03-29T10:35:14.115Z,15.54
2019-03-29T10:39:19.926Z,15.51
2019-03-29T10:43:25.606Z,15.73
2019-03-29T10:47:42.968Z,14.88
2019-03-29T11:00:52.137Z,16.32
2019-03-29T11:05:18.620Z,16.59
2019-03-29T11:09:45.036Z,16.98
2019-03-29T11:14:21.792Z,16.69
2019-03-29T11:18:28.120Z,18.02
2019-03-29T11:22:35.587Z,17.14
2019-03-29T11:26:41.258Z,17.29
2019-03-29T11:30:46.996Z,16.93
2019-03-29T11:39:10.816Z,18.30
2019-03-29T11:43:26.595Z,17.39
2019-03-29T11:47:46.285Z,17.21
2019-03-29T11:52:10.990Z,17.82
2019-03-29T11:56:16.762Z,17.58
2019-03-29T12:05:07.212Z,17.04
2019-03-29T12:09:13.462Z,17.64
2019-03-29T12:13:19.244Z,17.70
2019-03-29T12:17:25.458Z,17.04
2019-03-29T12:21:33.524Z,17.63
2019-03-29T12:30:56.099Z,17.96
2019-03-29T12:35:02.322Z,19.01
2019-03-29T12:39:08.607Z,18.42
2019-03-29T12:43:14.768Z,18.61
2019-03-29T12:47:20.905Z,17.62
2019-03-29T12:51:38.186Z,17.80
2019-03-29T12:55:44.066Z,18.09
2019-03-29T12:59:51.436Z,18.96
2019-03-29T13:03:57.777Z,18.37
2019-03-29T13:08:03.625Z,18.95
2019-03-29T13:21:17.413Z,18.31
2019-03-29T13:25:23.189Z,18.47
2019-03-29T13:29:28.917Z,19.68
2019-03-29T13:33:34.725Z,19.12
2019-03-29T13:37:52.760Z,19.58
2019-03-29T13:42:01.588Z,19.27
2019-03-29T13:46:10.408Z,19.51
2019-03-29T13:50:18.998Z,19.73
2019-03-29T13:54:27.962Z,19.82
2019-03-29T13:58:33.822Z,20.25
2019-03-29T14:02:51.781Z,20.03
2019-03-29T14:07:22.903Z,20.73
2019-03-29T14:11:30.456Z,21.88
2019-03-29T14:15:38.320Z,21.36
2019-03-29T14:19:44.075Z,21.24
2019-03-29T14:23:50.209Z,21.84
2019-03-29T14:27:55.931Z,22.18
2019-03-29T14:32:01.880Z,21.41
2019-03-29T14:36:07.871Z,21.44
2019-03-29T14:40:36.420Z,20.81
2019-03-29T14:44:52.225Z,22.46
2019-03-29T14:48:55.760Z,23.04
2019-03-29T14:53:01.807Z,24.59
2019-03-29T14:57:07.622Z,22.20
2019-03-29T15:01:13.502Z,23.78
2019-03-29T15:05:19.653Z,23.25
2019-03-29T15:09:25.532Z,21.75
2019-03-29T15:13:31.256Z,20.87
2019-03-29T15:17:37.027Z,21.73
2019-03-29T15:21:42.887Z,21.24
2019-03-29T15:25:48.618Z,24.72
2019-03-29T15:29:54.379Z,25.65
2019-03-29T15:34:18.978Z,24.43
2019-03-29T15:38:24.736Z,23.30
2019-03-29T15:42:30.442Z,22.04
2019-03-29T15:46:47.199Z,23.86
2019-03-29T15:50:52.966Z,25.60
2019-03-29T15:54:58.681Z,23.04
2019-03-29T16:03:22.283Z,23.60
2019-03-29T16:07:27.936Z,22.23
2019-03-29T16:11:34.599Z,22.56
2019-03-29T16:15:40.302Z,22.59
2019-03-29T16:19:46.126Z,23.51
2019-03-29T16:23:52.646Z,22.50
2019-03-29T16:32:33.264Z,22.98
2019-03-29T16:36:58.108Z,23.78
2019-03-29T16:41:07.002Z,22.97
2019-03-29T16:45:13.130Z,24.60
2019-03-29T16:49:19.096Z,22.06
2019-03-29T16:53:24.957Z,21.43
2019-03-29T16:57:31.308Z,22.45
2019-03-29T17:01:37.417Z,21.53
2019-03-29T17:05:43.206Z,21.95
2019-03-29T17:09:48.944Z,21.11
2019-03-29T17:13:54.671Z,20.67
2019-03-29T17:18:00.768Z,20.81
2019-03-29T17:26:23.714Z,19.97
2019-03-29T17:30:52.238Z,19.96
2019-03-29T17:34:58.010Z,21.28
2019-03-29T17:43:41.624Z,18.62
2019-03-29T17:47:47.378Z,17.59
2019-03-29T17:51:53.219Z,16.73
2019-03-29T17:55:59.059Z,16.58
2019-03-29T18:00:05.953Z,16.87
2019-03-29T18:04:11.737Z,16.40
2019-03-29T18:08:17.903Z,16.06
2019-03-29T18:12:23.645Z,15.87
2019-03-29T18:16:31.256Z,15.71
2019-03-29T18:20:37.055Z,15.68
2019-03-29T18:24:42.807Z,15.95
2019-03-29T18:28:48.541Z,16.15
2019-03-29T18:32:54.238Z,15.82
2019-03-29T18:37:39.425Z,15.96
2019-03-29T18:41:45.213Z,15.51
2019-03-29T18:45:51.027Z,15.54
2019-03-29T18:49:57.280Z,15.74
2019-03-29T18:54:03.166Z,16.20
2019-03-29T18:58:09.499Z,16.13
2019-03-29T19:02:15.250Z,16.23
2019-03-29T19:06:21.315Z,16.01
2019-03-29T19:10:27.032Z,15.45
2019-03-29T19:14:32.797Z,14.62
2019-03-29T19:18:40.184Z,14.72
2019-03-29T19:22:45.942Z,14.50
2019-03-29T19:26:51.737Z,13.96
2019-03-29T19:30:57.555Z,13.64
2019-03-29T19:35:03.371Z,13.54
2019-03-29T19:39:20.625Z,13.53
2019-03-29T19:43:26.413Z,13.68
2019-03-29T19:47:32.273Z,13.34
2019-03-29T19:51:38.891Z,13.35
2019-03-29T19:55:44.697Z,13.38
2019-03-29T20:00:01.320Z,13.39
2019-03-29T20:04:09.628Z,13.30
2019-03-29T20:08:20.505Z,13.03
2019-03-29T20:12:26.453Z,13.06
2019-03-29T20:16:33.723Z,12.76
2019-03-29T20:20:39.466Z,12.79
2019-03-29T20:24:45.156Z,12.68
2019-03-29T20:29:02.259Z,12.37
2019-03-29T20:33:08.079Z,12.23
2019-03-29T20:37:13.877Z,12.89
2019-03-29T20:41:19.609Z,12.61
2019-03-29T20:45:25.297Z,12.64
2019-03-29T20:49:31.260Z,12.28
2019-03-29T20:53:37.133Z,12.80
2019-03-29T21:02:13.060Z,12.25
2019-03-29T21:06:18.856Z,11.83
2019-03-29T21:10:24.541Z,12.03
2019-03-29T21:14:30.319Z,11.90
2019-03-29T21:18:36.473Z,11.61
2019-03-29T21:22:42.201Z,11.66
2019-03-29T21:26:47.922Z,12.17
2019-03-29T21:30:53.670Z,12.42
2019-03-29T21:34:59.695Z,12.42
2019-03-29T21:39:25.918Z,12.02
2019-03-29T21:43:32.076Z,11.88
2019-03-29T21:47:37.737Z,11.34
2019-03-29T21:51:43.503Z,10.74
2019-03-29T21:55:49.248Z,10.65
2019-03-29T21:59:54.939Z,10.37
2019-03-29T22:04:00.758Z,10.56
2019-03-29T22:08:06.518Z,10.30
2019-03-29T22:12:30.972Z,10.35
2019-03-29T22:16:36.677Z,10.12
2019-03-29T22:20:53.938Z,9.88
2019-03-29T22:24:59.742Z,10.30
2019-03-29T22:29:07.043Z,10.17
2019-03-29T22:33:14.415Z,9.91
2019-03-29T22:37:20.553Z,9.57
2019-03-29T22:41:28.197Z,9.62
2019-03-29T22:45:34.120Z,9.83
2019-03-29T22:49:40.183Z,9.85
2019-03-29T22:54:04.720Z,9.28
2019-03-29T22:58:10.439Z,9.28
2019-03-29T23:02:16.311Z,9.26
2019-03-29T23:06:22.068Z,9.30
2019-03-29T23:10:27.778Z,9.09
2019-03-29T23:14:34.313Z,9.23
2019-03-29T23:18:40.172Z,9.04
2019-03-29T23:22:45.892Z,9.10
2019-03-29T23:26:51.667Z,9.05
2019-03-29T23:30:57.478Z,8.99
2019-03-29T23:35:03.697Z,8.89
2019-03-29T23:39:09.482Z,9.12
2019-03-29T23:43:15.333Z,8.82
2019-03-29T23:47:21.281Z,8.67
2019-03-29T23:51:39.076Z,8.86
2019-03-29T23:55:44.831Z,8.98
2019-03-29T23:59:50.619Z,8.48
